sensor_id;sensor_type;location;lat;lon;timestamp;temperature;humidity
10873;DHT22;34586;53.616;10.032;2022-07-06T00:01:38;15.50;99.90
10873;DHT22;34586;53.616;10.032;2022-07-06T00:04:04;15.50;99.90
10873;DHT22;34586;53.616;10.032;2022-07-06T00:06:30;15.50;99.90
10873;DHT22;34586;53.616;10.032;2022-07-06T00:08:56;15.40;99.90
10873;DHT22;34586;53.616;10.032;2022-07-06T00:11:22;15.50;99.90
10873;DHT22;34586;53.616;10.032;2022-07-06T00:13:47;15.60;99.90
10873;DHT22;34586;53.616;10.032;2022-07-06T00:16:13;15.60;99.90
10873;DHT22;34586;53.616;10.032;2022-07-06T00:18:39;15.50;99.90
10873;DHT22;34586;53.616;10.032;2022-07-06T00:21:05;15.50;99.90
10873;DHT22;34586;53.616;10.032;2022-07-06T00:23:30;15.50;99.90
10873;DHT22;34586;53.616;10.032;2022-07-06T00:25:56;15.40;99.90
10873;DHT22;34586;53.616;10.032;2022-07-06T00:28:21;15.50;99.90
10873;DHT22;34586;53.616;10.032;2022-07-06T00:30:47;15.50;99.90
10873;DHT22;34586;53.616;10.032;2022-07-06T00:33:12;15.50;99.90
10873;DHT22;34586;53.616;10.032;2022-07-06T00:35:38;15.50;99.90
10873;DHT22;34586;53.616;10.032;2022-07-06T00:38:04;15.50;99.90
10873;DHT22;34586;53.616;10.032;2022-07-06T00:40:29;15.50;99.90
10873;DHT22;34586;53.616;10.032;2022-07-06T00:42:56;15.40;99.90
10873;DHT22;34586;53.616;10.032;2022-07-06T00:45:22;15.50;99.90
10873;DHT22;34586;53.616;10.032;2022-07-06T00:47:48;15.40;99.90
10873;DHT22;34586;53.616;10.032;2022-07-06T00:50:16;15.80;99.90
10873;DHT22;34586;53.616;10.032;2022-07-06T00:52:56;15.50;99.90
10873;DHT22;34586;53.616;10.032;2022-07-06T00:55:24;15.50;99.90
10873;DHT22;34586;53.616;10.032;2022-07-06T00:57:51;15.40;99.90
10873;DHT22;34586;53.616;10.032;2022-07-06T01:00:20;15.50;99.90
10873;DHT22;34586;53.616;10.032;2022-07-06T01:02:46;15.40;99.90
10873;DHT22;34586;53.616;10.032;2022-07-06T01:05:14;15.40;99.90
10873;DHT22;34586;53.616;10.032;2022-07-06T01:07:42;15.40;99.90
10873;DHT22;34586;53.616;10.032;2022-07-06T01:10:09;15.30;99.90
10873;DHT22;34586;53.616;10.032;2022-07-06T01:12:35;15.40;99.90
10873;DHT22;34586;53.616;10.032;2022-07-06T01:15:06;15.30;99.90
10873;DHT22;34586;53.616;10.032;2022-07-06T01:17:35;15.30;99.90
10873;DHT22;34586;53.616;10.032;2022-07-06T01:20:11;15.30;99.90
10873;DHT22;34586;53.616;10.032;2022-07-06T01:22:37;15.30;99.90
10873;DHT22;34586;53.616;10.032;2022-07-06T01:25:04;15.30;99.90
10873;DHT22;34586;53.616;10.032;2022-07-06T01:27:30;15.30;99.90
10873;DHT22;34586;53.616;10.032;2022-07-06T01:29:56;15.20;99.90
10873;DHT22;34586;53.616;10.032;2022-07-06T01:32:21;15.20;99.90
10873;DHT22;34586;53.616;10.032;2022-07-06T01:34:47;15.20;99.90
10873;DHT22;34586;53.616;10.032;2022-07-06T01:37:13;15.10;99.90
10873;DHT22;34586;53.616;10.032;2022-07-06T01:39:38;15.10;99.90
10873;DHT22;34586;53.616;10.032;2022-07-06T01:42:04;15.10;99.90
10873;DHT22;34586;53.616;10.032;2022-07-06T01:44:30;15.10;99.90
10873;DHT22;34586;53.616;10.032;2022-07-06T01:46:55;15.10;99.90
10873;DHT22;34586;53.616;10.032;2022-07-06T01:49:21;15.20;99.90
10873;DHT22;34586;53.616;10.032;2022-07-06T01:51:46;15.20;99.90
10873;DHT22;34586;53.616;10.032;2022-07-06T01:54:12;15.20;99.90
10873;DHT22;34586;53.616;10.032;2022-07-06T01:56:38;15.30;99.90
10873;DHT22;34586;53.616;10.032;2022-07-06T01:59:03;15.20;99.90
10873;DHT22;34586;53.616;10.032;2022-07-06T02:01:29;15.10;99.90
10873;DHT22;34586;53.616;10.032;2022-07-06T02:03:54;15.20;99.90
10873;DHT22;34586;53.616;10.032;2022-07-06T02:06:20;15.30;99.90
10873;DHT22;34586;53.616;10.032;2022-07-06T02:08:45;15.20;99.90
10873;DHT22;34586;53.616;10.032;2022-07-06T02:11:11;15.20;99.90
10873;DHT22;34586;53.616;10.032;2022-07-06T02:13:37;15.30;99.90
10873;DHT22;34586;53.616;10.032;2022-07-06T02:16:03;15.20;99.90
10873;DHT22;34586;53.616;10.032;2022-07-06T02:18:29;15.30;99.90
10873;DHT22;34586;53.616;10.032;2022-07-06T02:20:54;15.30;99.90
10873;DHT22;34586;53.616;10.032;2022-07-06T02:23:20;15.30;99.90
10873;DHT22;34586;53.616;10.032;2022-07-06T02:25:46;15.30;99.90
10873;DHT22;34586;53.616;10.032;2022-07-06T02:28:11;15.30;99.90
10873;DHT22;34586;53.616;10.032;2022-07-06T02:30:37;15.30;99.90
10873;DHT22;34586;53.616;10.032;2022-07-06T02:33:02;15.20;99.90
10873;DHT22;34586;53.616;10.032;2022-07-06T02:35:28;15.20;99.90
10873;DHT22;34586;53.616;10.032;2022-07-06T02:37:54;15.10;99.90
10873;DHT22;34586;53.616;10.032;2022-07-06T02:40:19;15.10;99.90
10873;DHT22;34586;53.616;10.032;2022-07-06T02:42:45;15.10;99.90
10873;DHT22;34586;53.616;10.032;2022-07-06T02:45:11;15.00;99.90
10873;DHT22;34586;53.616;10.032;2022-07-06T02:47:36;15.00;99.90
10873;DHT22;34586;53.616;10.032;2022-07-06T02:50:04;15.00;99.90
10873;DHT22;34586;53.616;10.032;2022-07-06T02:52:29;15.00;99.90
10873;DHT22;34586;53.616;10.032;2022-07-06T02:54:55;15.00;99.90
10873;DHT22;34586;53.616;10.032;2022-07-06T02:57:21;14.90;99.90
10873;DHT22;34586;53.616;10.032;2022-07-06T02:59:46;14.90;99.90
10873;DHT22;34586;53.616;10.032;2022-07-06T03:02:15;15.00;99.90
10873;DHT22;34586;53.616;10.032;2022-07-06T03:04:41;15.00;99.90
10873;DHT22;34586;53.616;10.032;2022-07-06T03:07:07;14.90;99.90
10873;DHT22;34586;53.616;10.032;2022-07-06T03:09:33;15.00;99.90
10873;DHT22;34586;53.616;10.032;2022-07-06T03:11:58;15.00;99.90
10873;DHT22;34586;53.616;10.032;2022-07-06T03:14:24;15.00;99.90
10873;DHT22;34586;53.616;10.032;2022-07-06T03:16:50;14.90;99.90
10873;DHT22;34586;53.616;10.032;2022-07-06T03:19:16;14.90;99.90
10873;DHT22;34586;53.616;10.032;2022-07-06T03:21:43;14.90;99.90
10873;DHT22;34586;53.616;10.032;2022-07-06T03:24:08;14.90;99.90
10873;DHT22;34586;53.616;10.032;2022-07-06T03:26:34;14.90;99.90
10873;DHT22;34586;53.616;10.032;2022-07-06T03:28:59;14.90;99.90
10873;DHT22;34586;53.616;10.032;2022-07-06T03:31:25;14.90;99.90
10873;DHT22;34586;53.616;10.032;2022-07-06T03:33:52;15.00;99.90
10873;DHT22;34586;53.616;10.032;2022-07-06T03:36:17;15.10;99.90
10873;DHT22;34586;53.616;10.032;2022-07-06T03:38:43;15.00;99.90
10873;DHT22;34586;53.616;10.032;2022-07-06T03:41:09;15.00;99.90
10873;DHT22;34586;53.616;10.032;2022-07-06T03:43:34;15.10;99.90
10873;DHT22;34586;53.616;10.032;2022-07-06T03:46:00;15.10;99.90
10873;DHT22;34586;53.616;10.032;2022-07-06T03:48:25;15.10;99.90
10873;DHT22;34586;53.616;10.032;2022-07-06T03:50:51;15.10;99.90
10873;DHT22;34586;53.616;10.032;2022-07-06T03:53:17;15.10;99.90
10873;DHT22;34586;53.616;10.032;2022-07-06T03:55:42;15.10;99.90
10873;DHT22;34586;53.616;10.032;2022-07-06T03:58:08;15.10;99.90
10873;DHT22;34586;53.616;10.032;2022-07-06T04:00:33;15.10;99.90
10873;DHT22;34586;53.616;10.032;2022-07-06T04:03:00;15.20;99.90
10873;DHT22;34586;53.616;10.032;2022-07-06T04:05:26;15.10;99.90
10873;DHT22;34586;53.616;10.032;2022-07-06T04:07:52;15.10;99.90
10873;DHT22;34586;53.616;10.032;2022-07-06T04:10:17;15.20;99.90
10873;DHT22;34586;53.616;10.032;2022-07-06T04:12:44;15.10;99.90
10873;DHT22;34586;53.616;10.032;2022-07-06T04:15:11;15.00;99.90
10873;DHT22;34586;53.616;10.032;2022-07-06T04:17:38;14.90;99.90
10873;DHT22;34586;53.616;10.032;2022-07-06T04:20:20;15.00;99.90
10873;DHT22;34586;53.616;10.032;2022-07-06T04:22:46;14.80;99.90
10873;DHT22;34586;53.616;10.032;2022-07-06T04:25:11;14.80;99.90
10873;DHT22;34586;53.616;10.032;2022-07-06T04:27:37;14.80;99.90
10873;DHT22;34586;53.616;10.032;2022-07-06T04:30:05;14.80;99.90
10873;DHT22;34586;53.616;10.032;2022-07-06T04:32:31;14.90;99.90
10873;DHT22;34586;53.616;10.032;2022-07-06T04:34:57;14.80;99.90
10873;DHT22;34586;53.616;10.032;2022-07-06T04:37:22;14.90;99.90
10873;DHT22;34586;53.616;10.032;2022-07-06T04:39:48;14.90;99.90
10873;DHT22;34586;53.616;10.032;2022-07-06T04:42:13;15.00;99.90
10873;DHT22;34586;53.616;10.032;2022-07-06T04:44:39;15.00;99.90
10873;DHT22;34586;53.616;10.032;2022-07-06T04:47:04;15.00;99.90
10873;DHT22;34586;53.616;10.032;2022-07-06T04:49:30;15.00;99.90
10873;DHT22;34586;53.616;10.032;2022-07-06T04:51:56;15.10;99.90
10873;DHT22;34586;53.616;10.032;2022-07-06T04:54:22;15.10;99.90
10873;DHT22;34586;53.616;10.032;2022-07-06T04:56:47;15.10;99.90
10873;DHT22;34586;53.616;10.032;2022-07-06T04:59:13;15.20;99.90
10873;DHT22;34586;53.616;10.032;2022-07-06T05:01:39;15.20;99.90
10873;DHT22;34586;53.616;10.032;2022-07-06T05:04:06;15.20;99.90
10873;DHT22;34586;53.616;10.032;2022-07-06T05:06:32;15.20;99.90
10873;DHT22;34586;53.616;10.032;2022-07-06T05:08:57;15.10;99.90
10873;DHT22;34586;53.616;10.032;2022-07-06T05:11:25;15.10;99.90
10873;DHT22;34586;53.616;10.032;2022-07-06T05:13:50;15.20;99.90
10873;DHT22;34586;53.616;10.032;2022-07-06T05:16:16;15.10;99.90
10873;DHT22;34586;53.616;10.032;2022-07-06T05:18:42;15.10;99.90
10873;DHT22;34586;53.616;10.032;2022-07-06T05:21:07;15.10;99.90
10873;DHT22;34586;53.616;10.032;2022-07-06T05:23:33;15.10;99.90
10873;DHT22;34586;53.616;10.032;2022-07-06T05:25:58;15.30;99.90
10873;DHT22;34586;53.616;10.032;2022-07-06T05:28:24;15.20;99.90
10873;DHT22;34586;53.616;10.032;2022-07-06T05:30:50;15.20;99.90
10873;DHT22;34586;53.616;10.032;2022-07-06T05:33:15;15.30;99.90
10873;DHT22;34586;53.616;10.032;2022-07-06T05:35:41;15.30;99.90
10873;DHT22;34586;53.616;10.032;2022-07-06T05:38:06;15.40;99.90
10873;DHT22;34586;53.616;10.032;2022-07-06T05:40:32;15.40;99.90
10873;DHT22;34586;53.616;10.032;2022-07-06T05:42:57;15.30;99.90
10873;DHT22;34586;53.616;10.032;2022-07-06T05:45:23;15.30;99.90
10873;DHT22;34586;53.616;10.032;2022-07-06T05:47:49;15.40;99.90
10873;DHT22;34586;53.616;10.032;2022-07-06T05:50:33;15.30;99.90
10873;DHT22;34586;53.616;10.032;2022-07-06T05:53:04;15.30;99.90
10873;DHT22;34586;53.616;10.032;2022-07-06T05:55:30;15.30;99.90
10873;DHT22;34586;53.616;10.032;2022-07-06T05:57:56;15.40;99.90
10873;DHT22;34586;53.616;10.032;2022-07-06T06:00:26;15.40;99.90
10873;DHT22;34586;53.616;10.032;2022-07-06T06:02:52;15.30;99.90
10873;DHT22;34586;53.616;10.032;2022-07-06T06:05:19;15.20;99.90
10873;DHT22;34586;53.616;10.032;2022-07-06T06:07:45;15.20;99.90
10873;DHT22;34586;53.616;10.032;2022-07-06T06:10:15;15.20;99.90
10873;DHT22;34586;53.616;10.032;2022-07-06T06:12:42;15.10;99.90
10873;DHT22;34586;53.616;10.032;2022-07-06T06:15:08;15.10;99.90
10873;DHT22;34586;53.616;10.032;2022-07-06T06:17:35;15.10;99.90
10873;DHT22;34586;53.616;10.032;2022-07-06T06:20:02;15.20;99.90
10873;DHT22;34586;53.616;10.032;2022-07-06T06:22:28;15.30;99.90
10873;DHT22;34586;53.616;10.032;2022-07-06T06:24:54;15.40;99.90
10873;DHT22;34586;53.616;10.032;2022-07-06T06:27:19;15.50;99.90
10873;DHT22;34586;53.616;10.032;2022-07-06T06:29:45;15.60;99.90
10873;DHT22;34586;53.616;10.032;2022-07-06T06:32:12;15.60;99.90
10873;DHT22;34586;53.616;10.032;2022-07-06T06:34:38;15.70;99.90
10873;DHT22;34586;53.616;10.032;2022-07-06T06:37:04;15.80;99.90
10873;DHT22;34586;53.616;10.032;2022-07-06T06:39:30;15.90;99.90
10873;DHT22;34586;53.616;10.032;2022-07-06T06:41:56;16.00;99.90
10873;DHT22;34586;53.616;10.032;2022-07-06T06:44:21;16.10;99.90
10873;DHT22;34586;53.616;10.032;2022-07-06T06:46:50;16.20;99.90
10873;DHT22;34586;53.616;10.032;2022-07-06T06:49:17;16.20;99.90
10873;DHT22;34586;53.616;10.032;2022-07-06T06:51:43;16.30;99.90
10873;DHT22;34586;53.616;10.032;2022-07-06T06:54:09;16.40;99.90
10873;DHT22;34586;53.616;10.032;2022-07-06T06:56:34;16.50;99.90
10873;DHT22;34586;53.616;10.032;2022-07-06T06:59:00;16.60;99.90
10873;DHT22;34586;53.616;10.032;2022-07-06T07:01:27;16.70;99.90
10873;DHT22;34586;53.616;10.032;2022-07-06T07:03:54;16.60;99.90
10873;DHT22;34586;53.616;10.032;2022-07-06T07:06:20;16.70;99.90
10873;DHT22;34586;53.616;10.032;2022-07-06T07:08:46;16.70;99.90
10873;DHT22;34586;53.616;10.032;2022-07-06T07:11:12;16.70;99.90
10873;DHT22;34586;53.616;10.032;2022-07-06T07:13:38;16.80;99.90
10873;DHT22;34586;53.616;10.032;2022-07-06T07:16:04;16.90;99.90
10873;DHT22;34586;53.616;10.032;2022-07-06T07:18:30;16.90;99.90
10873;DHT22;34586;53.616;10.032;2022-07-06T07:20:55;17.00;99.90
10873;DHT22;34586;53.616;10.032;2022-07-06T07:23:21;17.10;99.90
10873;DHT22;34586;53.616;10.032;2022-07-06T07:25:47;17.10;99.90
10873;DHT22;34586;53.616;10.032;2022-07-06T07:28:12;17.10;99.90
10873;DHT22;34586;53.616;10.032;2022-07-06T07:30:38;17.20;99.90
10873;DHT22;34586;53.616;10.032;2022-07-06T07:33:03;17.30;99.90
10873;DHT22;34586;53.616;10.032;2022-07-06T07:35:29;17.30;99.90
10873;DHT22;34586;53.616;10.032;2022-07-06T07:37:54;17.30;99.90
10873;DHT22;34586;53.616;10.032;2022-07-06T07:40:20;17.40;99.90
10873;DHT22;34586;53.616;10.032;2022-07-06T07:42:47;17.30;99.90
10873;DHT22;34586;53.616;10.032;2022-07-06T07:45:12;17.30;99.90
10873;DHT22;34586;53.616;10.032;2022-07-06T07:47:39;17.30;99.90
10873;DHT22;34586;53.616;10.032;2022-07-06T07:50:05;17.50;99.90
10873;DHT22;34586;53.616;10.032;2022-07-06T07:52:31;17.50;99.90
10873;DHT22;34586;53.616;10.032;2022-07-06T07:54:57;17.70;99.90
10873;DHT22;34586;53.616;10.032;2022-07-06T07:57:23;17.60;99.90
10873;DHT22;34586;53.616;10.032;2022-07-06T07:59:48;17.70;99.90
10873;DHT22;34586;53.616;10.032;2022-07-06T08:02:14;17.70;99.90
10873;DHT22;34586;53.616;10.032;2022-07-06T08:04:40;17.80;99.90
10873;DHT22;34586;53.616;10.032;2022-07-06T08:07:06;17.60;99.90
10873;DHT22;34586;53.616;10.032;2022-07-06T08:09:31;17.90;99.90
10873;DHT22;34586;53.616;10.032;2022-07-06T08:11:59;17.80;99.90
10873;DHT22;34586;53.616;10.032;2022-07-06T08:14:25;17.90;99.90
10873;DHT22;34586;53.616;10.032;2022-07-06T08:16:51;18.00;99.90
10873;DHT22;34586;53.616;10.032;2022-07-06T08:19:16;18.10;99.90
10873;DHT22;34586;53.616;10.032;2022-07-06T08:21:42;18.30;99.90
10873;DHT22;34586;53.616;10.032;2022-07-06T08:24:09;18.40;99.90
10873;DHT22;34586;53.616;10.032;2022-07-06T08:26:34;18.60;99.90
10873;DHT22;34586;53.616;10.032;2022-07-06T08:29:00;18.60;99.90
10873;DHT22;34586;53.616;10.032;2022-07-06T08:31:26;18.60;99.90
10873;DHT22;34586;53.616;10.032;2022-07-06T08:33:55;18.60;99.90
10873;DHT22;34586;53.616;10.032;2022-07-06T08:36:21;18.60;99.90
10873;DHT22;34586;53.616;10.032;2022-07-06T08:38:48;18.60;99.90
10873;DHT22;34586;53.616;10.032;2022-07-06T08:41:15;18.60;99.90
10873;DHT22;34586;53.616;10.032;2022-07-06T08:43:41;18.40;99.90
10873;DHT22;34586;53.616;10.032;2022-07-06T08:46:07;18.10;99.90
10873;DHT22;34586;53.616;10.032;2022-07-06T08:48:37;18.00;99.90
10873;DHT22;34586;53.616;10.032;2022-07-06T08:51:04;17.90;99.90
10873;DHT22;34586;53.616;10.032;2022-07-06T08:53:30;17.70;99.90
10873;DHT22;34586;53.616;10.032;2022-07-06T08:55:56;17.70;99.90
10873;DHT22;34586;53.616;10.032;2022-07-06T08:58:26;17.50;99.90
10873;DHT22;34586;53.616;10.032;2022-07-06T09:00:56;17.20;99.90
10873;DHT22;34586;53.616;10.032;2022-07-06T09:03:23;17.10;99.90
10873;DHT22;34586;53.616;10.032;2022-07-06T09:05:50;16.90;99.90
10873;DHT22;34586;53.616;10.032;2022-07-06T09:08:18;16.80;99.90
10873;DHT22;34586;53.616;10.032;2022-07-06T09:10:44;16.90;99.90
10873;DHT22;34586;53.616;10.032;2022-07-06T09:13:09;17.10;99.90
10873;DHT22;34586;53.616;10.032;2022-07-06T09:15:36;17.30;99.90
10873;DHT22;34586;53.616;10.032;2022-07-06T09:18:04;17.50;99.90
10873;DHT22;34586;53.616;10.032;2022-07-06T09:20:32;17.70;99.90
10873;DHT22;34586;53.616;10.032;2022-07-06T09:23:00;17.80;99.90
10873;DHT22;34586;53.616;10.032;2022-07-06T09:25:26;17.90;99.90
10873;DHT22;34586;53.616;10.032;2022-07-06T09:27:52;18.00;99.90
10873;DHT22;34586;53.616;10.032;2022-07-06T09:30:22;18.20;99.90
10873;DHT22;34586;53.616;10.032;2022-07-06T09:32:50;18.10;99.90
10873;DHT22;34586;53.616;10.032;2022-07-06T09:35:39;18.20;99.90
10873;DHT22;34586;53.616;10.032;2022-07-06T09:38:06;18.20;99.90
10873;DHT22;34586;53.616;10.032;2022-07-06T09:40:37;18.30;99.90
10873;DHT22;34586;53.616;10.032;2022-07-06T09:43:21;18.40;99.90
10873;DHT22;34586;53.616;10.032;2022-07-06T09:45:55;18.40;99.90
10873;DHT22;34586;53.616;10.032;2022-07-06T09:48:26;18.60;99.90
10873;DHT22;34586;53.616;10.032;2022-07-06T09:51:00;18.70;99.90
10873;DHT22;34586;53.616;10.032;2022-07-06T09:53:28;18.80;99.90
10873;DHT22;34586;53.616;10.032;2022-07-06T09:55:56;19.20;99.90
10873;DHT22;34586;53.616;10.032;2022-07-06T09:58:24;19.20;99.90
10873;DHT22;34586;53.616;10.032;2022-07-06T10:00:50;19.30;99.90
10873;DHT22;34586;53.616;10.032;2022-07-06T10:03:17;19.40;99.90
10873;DHT22;34586;53.616;10.032;2022-07-06T10:05:45;19.60;99.90
10873;DHT22;34586;53.616;10.032;2022-07-06T10:08:16;19.80;99.90
10873;DHT22;34586;53.616;10.032;2022-07-06T10:10:43;19.70;99.90
10873;DHT22;34586;53.616;10.032;2022-07-06T10:13:09;19.70;99.90
10873;DHT22;34586;53.616;10.032;2022-07-06T10:15:39;19.70;99.90
10873;DHT22;34586;53.616;10.032;2022-07-06T10:18:06;19.40;99.90
10873;DHT22;34586;53.616;10.032;2022-07-06T10:20:34;19.00;99.90
10873;DHT22;34586;53.616;10.032;2022-07-06T10:23:03;18.60;99.90
10873;DHT22;34586;53.616;10.032;2022-07-06T10:25:29;18.20;99.90
10873;DHT22;34586;53.616;10.032;2022-07-06T10:27:56;17.80;99.90
10873;DHT22;34586;53.616;10.032;2022-07-06T10:30:23;17.50;99.90
10873;DHT22;34586;53.616;10.032;2022-07-06T10:32:50;17.40;99.90
10873;DHT22;34586;53.616;10.032;2022-07-06T10:35:18;17.20;99.90
10873;DHT22;34586;53.616;10.032;2022-07-06T10:37:45;17.00;99.90
10873;DHT22;34586;53.616;10.032;2022-07-06T10:40:14;16.80;99.90
10873;DHT22;34586;53.616;10.032;2022-07-06T10:43:00;16.80;99.90
10873;DHT22;34586;53.616;10.032;2022-07-06T10:50:53;17.10;99.90
10873;DHT22;34586;53.616;10.032;2022-07-06T10:53:24;16.80;99.90
10873;DHT22;34586;53.616;10.032;2022-07-06T10:55:52;17.00;99.90
10873;DHT22;34586;53.616;10.032;2022-07-06T10:58:47;17.30;99.90
10873;DHT22;34586;53.616;10.032;2022-07-06T11:01:14;17.40;99.90
10873;DHT22;34586;53.616;10.032;2022-07-06T11:03:43;17.60;99.90
10873;DHT22;34586;53.616;10.032;2022-07-06T11:08:43;18.10;99.90
10873;DHT22;34586;53.616;10.032;2022-07-06T11:11:39;18.30;99.90
10873;DHT22;34586;53.616;10.032;2022-07-06T11:14:16;18.60;99.90
10873;DHT22;34586;53.616;10.032;2022-07-06T11:19:15;18.80;99.90
10873;DHT22;34586;53.616;10.032;2022-07-06T11:21:52;18.80;99.90
10873;DHT22;34586;53.616;10.032;2022-07-06T11:24:28;18.80;99.90
10873;DHT22;34586;53.616;10.032;2022-07-06T11:26:55;19.00;99.90
10873;DHT22;34586;53.616;10.032;2022-07-06T11:29:22;19.50;99.90
10873;DHT22;34586;53.616;10.032;2022-07-06T11:31:51;19.60;99.90
10873;DHT22;34586;53.616;10.032;2022-07-06T11:34:20;19.80;99.90
10873;DHT22;34586;53.616;10.032;2022-07-06T11:36:46;19.90;99.90
10873;DHT22;34586;53.616;10.032;2022-07-06T11:39:13;20.20;99.90
10873;DHT22;34586;53.616;10.032;2022-07-06T11:41:39;20.00;99.90
10873;DHT22;34586;53.616;10.032;2022-07-06T11:44:05;19.80;99.90
10873;DHT22;34586;53.616;10.032;2022-07-06T11:46:32;19.60;99.90
10873;DHT22;34586;53.616;10.032;2022-07-06T11:49:06;19.50;99.90
10873;DHT22;34586;53.616;10.032;2022-07-06T11:51:35;19.30;99.90
10873;DHT22;34586;53.616;10.032;2022-07-06T11:54:14;19.30;99.90
10873;DHT22;34586;53.616;10.032;2022-07-06T11:56:56;19.40;99.90
10873;DHT22;34586;53.616;10.032;2022-07-06T11:59:32;19.60;99.90
10873;DHT22;34586;53.616;10.032;2022-07-06T12:04:35;20.00;99.90
10873;DHT22;34586;53.616;10.032;2022-07-06T12:07:02;20.40;99.90
10873;DHT22;34586;53.616;10.032;2022-07-06T12:09:47;20.80;99.90
10873;DHT22;34586;53.616;10.032;2022-07-06T12:12:14;21.10;98.60
10873;DHT22;34586;53.616;10.032;2022-07-06T12:14:41;21.30;99.90
10873;DHT22;34586;53.616;10.032;2022-07-06T12:17:12;21.60;99.90
10873;DHT22;34586;53.616;10.032;2022-07-06T12:19:39;21.90;97.00
10873;DHT22;34586;53.616;10.032;2022-07-06T12:22:05;22.20;98.70
10873;DHT22;34586;53.616;10.032;2022-07-06T12:24:33;22.30;93.70
10873;DHT22;34586;53.616;10.032;2022-07-06T12:27:10;22.00;88.60
10873;DHT22;34586;53.616;10.032;2022-07-06T12:29:35;21.60;92.70
10873;DHT22;34586;53.616;10.032;2022-07-06T12:32:01;21.80;92.80
10873;DHT22;34586;53.616;10.032;2022-07-06T12:34:28;22.20;93.80
10873;DHT22;34586;53.616;10.032;2022-07-06T12:37:06;22.30;82.40
10873;DHT22;34586;53.616;10.032;2022-07-06T12:39:44;21.90;88.10
10873;DHT22;34586;53.616;10.032;2022-07-06T12:42:12;21.50;84.50
10873;DHT22;34586;53.616;10.032;2022-07-06T12:44:43;21.00;86.90
10873;DHT22;34586;53.616;10.032;2022-07-06T12:47:10;20.60;93.50
10873;DHT22;34586;53.616;10.032;2022-07-06T12:49:37;21.30;99.90
10873;DHT22;34586;53.616;10.032;2022-07-06T12:57:14;23.40;60.70
10873;DHT22;34586;53.616;10.032;2022-07-06T13:02:19;22.00;73.30
10873;DHT22;34586;53.616;10.032;2022-07-06T13:04:58;21.60;77.70
10873;DHT22;34586;53.616;10.032;2022-07-06T13:07:25;21.30;85.70
10873;DHT22;34586;53.616;10.032;2022-07-06T13:09:50;21.20;85.60
10873;DHT22;34586;53.616;10.032;2022-07-06T13:12:16;22.00;87.50
10873;DHT22;34586;53.616;10.032;2022-07-06T13:14:41;23.10;76.60
10873;DHT22;34586;53.616;10.032;2022-07-06T13:17:07;24.30;68.30
10873;DHT22;34586;53.616;10.032;2022-07-06T13:19:33;24.90;56.50
10873;DHT22;34586;53.616;10.032;2022-07-06T13:21:59;25.30;53.80
10873;DHT22;34586;53.616;10.032;2022-07-06T13:24:24;25.80;49.10
10873;DHT22;34586;53.616;10.032;2022-07-06T13:26:50;25.90;45.90
10873;DHT22;34586;53.616;10.032;2022-07-06T13:29:16;26.00;46.20
10873;DHT22;34586;53.616;10.032;2022-07-06T13:31:41;26.10;41.50
10873;DHT22;34586;53.616;10.032;2022-07-06T13:34:07;26.30;42.30
10873;DHT22;34586;53.616;10.032;2022-07-06T13:36:34;26.30;37.70
10873;DHT22;34586;53.616;10.032;2022-07-06T13:39:00;26.60;40.10
10873;DHT22;34586;53.616;10.032;2022-07-06T13:41:26;26.00;35.10
10873;DHT22;34586;53.616;10.032;2022-07-06T13:43:52;25.30;45.20
10873;DHT22;34586;53.616;10.032;2022-07-06T13:46:17;25.60;42.80
10873;DHT22;34586;53.616;10.032;2022-07-06T13:48:43;25.40;37.30
10873;DHT22;34586;53.616;10.032;2022-07-06T13:51:09;25.20;44.40
10873;DHT22;34586;53.616;10.032;2022-07-06T13:53:35;24.80;40.30
10873;DHT22;34586;53.616;10.032;2022-07-06T13:56:01;24.10;46.30
10873;DHT22;34586;53.616;10.032;2022-07-06T14:01:49;23.70;45.90
10873;DHT22;34586;53.616;10.032;2022-07-06T14:04:14;23.80;54.00
10873;DHT22;34586;53.616;10.032;2022-07-06T14:06:40;24.40;50.40
10873;DHT22;34586;53.616;10.032;2022-07-06T14:09:06;24.80;40.10
10873;DHT22;34586;53.616;10.032;2022-07-06T14:11:32;25.10;36.40
10873;DHT22;34586;53.616;10.032;2022-07-06T14:13:57;25.20;36.70
10873;DHT22;34586;53.616;10.032;2022-07-06T14:16:23;25.20;36.40
10873;DHT22;34586;53.616;10.032;2022-07-06T14:18:49;25.80;35.50
10873;DHT22;34586;53.616;10.032;2022-07-06T14:21:16;26.30;32.50
10873;DHT22;34586;53.616;10.032;2022-07-06T14:23:41;26.50;35.30
10873;DHT22;34586;53.616;10.032;2022-07-06T14:26:07;26.20;29.80
10873;DHT22;34586;53.616;10.032;2022-07-06T14:28:33;25.80;27.00
10873;DHT22;34586;53.616;10.032;2022-07-06T14:30:58;25.50;31.00
10873;DHT22;34586;53.616;10.032;2022-07-06T14:33:26;25.30;33.30
10873;DHT22;34586;53.616;10.032;2022-07-06T14:35:52;25.10;34.20
10873;DHT22;34586;53.616;10.032;2022-07-06T14:38:19;24.70;34.70
10873;DHT22;34586;53.616;10.032;2022-07-06T14:40:46;24.50;40.00
10873;DHT22;34586;53.616;10.032;2022-07-06T14:43:14;24.70;38.20
10873;DHT22;34586;53.616;10.032;2022-07-06T14:45:39;24.10;39.90
10873;DHT22;34586;53.616;10.032;2022-07-06T14:48:05;24.30;38.70
10873;DHT22;34586;53.616;10.032;2022-07-06T14:50:34;24.60;43.60
10873;DHT22;34586;53.616;10.032;2022-07-06T14:53:01;24.80;37.90
10873;DHT22;34586;53.616;10.032;2022-07-06T14:55:26;24.70;35.80
10873;DHT22;34586;53.616;10.032;2022-07-06T14:57:52;24.60;39.70
10873;DHT22;34586;53.616;10.032;2022-07-06T15:00:20;24.60;31.70
10873;DHT22;34586;53.616;10.032;2022-07-06T15:02:46;24.30;39.50
10873;DHT22;34586;53.616;10.032;2022-07-06T15:05:12;23.90;46.40
10873;DHT22;34586;53.616;10.032;2022-07-06T15:07:39;24.00;43.30
10873;DHT22;34586;53.616;10.032;2022-07-06T15:10:06;24.00;46.60
10873;DHT22;34586;53.616;10.032;2022-07-06T15:12:32;23.80;47.10
10873;DHT22;34586;53.616;10.032;2022-07-06T15:14:58;23.90;47.40
10873;DHT22;34586;53.616;10.032;2022-07-06T15:17:23;24.00;46.80
10873;DHT22;34586;53.616;10.032;2022-07-06T15:19:49;23.80;47.10
10873;DHT22;34586;53.616;10.032;2022-07-06T15:22:15;23.40;45.10
10873;DHT22;34586;53.616;10.032;2022-07-06T15:24:40;23.10;44.00
10873;DHT22;34586;53.616;10.032;2022-07-06T15:27:06;22.80;42.20
10873;DHT22;34586;53.616;10.032;2022-07-06T15:29:33;22.50;47.30
10873;DHT22;34586;53.616;10.032;2022-07-06T15:31:59;22.30;53.20
10873;DHT22;34586;53.616;10.032;2022-07-06T15:34:24;22.00;59.20
10873;DHT22;34586;53.616;10.032;2022-07-06T15:36:50;21.90;57.40
10873;DHT22;34586;53.616;10.032;2022-07-06T15:39:16;21.60;69.10